createdAt,value
2019-01-26T00:02:23.805Z,2.67
2019-01-26T00:04:58.678Z,2.81
2019-01-26T00:07:33.664Z,2.90
2019-01-26T00:10:09.442Z,2.97
2019-01-26T00:12:45.680Z,2.67
2019-01-26T00:15:21.412Z,2.69
2019-01-26T00:17:57.636Z,2.75
2019-01-26T00:20:36.418Z,2.77
2019-01-26T00:23:09.235Z,2.90
2019-01-26T00:26:02.929Z,2.93
2019-01-26T00:28:37.796Z,2.93
2019-01-26T00:31:12.694Z,2.77
2019-01-26T00:33:47.544Z,2.65
2019-01-26T00:36:22.706Z,2.83
2019-01-26T00:38:57.558Z,2.84
2019-01-26T00:41:34.275Z,2.88
2019-01-26T00:44:12.045Z,3.09
2019-01-26T00:46:49.943Z,2.94
2019-01-26T00:49:25.876Z,2.87
2019-01-26T00:52:00.953Z,2.92
2019-01-26T00:54:38.539Z,2.83
2019-01-26T00:57:18.039Z,2.87
2019-01-26T00:59:54.560Z,3.01
2019-01-26T01:02:29.421Z,2.93
2019-01-26T01:05:07.041Z,3.14
2019-01-26T01:07:41.955Z,3.16
2019-01-26T01:10:18.516Z,3.20
2019-01-26T01:12:57.692Z,3.28
2019-01-26T01:15:32.850Z,3.16
2019-01-26T01:18:09.991Z,3.18
2019-01-26T01:20:44.763Z,3.31
2019-01-26T01:23:19.657Z,3.36
2019-01-26T01:25:59.375Z,3.26
2019-01-26T01:28:35.174Z,3.30
2019-01-26T01:31:10.003Z,3.14
2019-01-26T01:33:45.737Z,3.14
2019-01-26T01:36:21.443Z,3.12
2019-01-26T01:38:57.894Z,3.11
2019-01-26T01:41:34.147Z,3.35
2019-01-26T01:44:12.087Z,3.14
2019-01-26T01:46:50.312Z,3.23
2019-01-26T01:49:26.056Z,3.16
2019-01-26T01:52:01.941Z,3.11
2019-01-26T01:54:36.945Z,3.27
2019-01-26T01:57:18.393Z,3.10
2019-01-26T02:04:37.427Z,3.20
2019-01-26T02:07:31.295Z,3.35
2019-01-26T02:13:03.707Z,2.83
2019-01-26T02:19:01.089Z,2.88
2019-01-26T02:21:35.971Z,3.21
2019-01-26T02:24:10.798Z,3.27
2019-01-26T02:31:37.845Z,3.09
2019-01-26T02:34:49.553Z,3.23
2019-01-26T02:37:24.411Z,3.29
2019-01-26T02:40:26.883Z,3.23
2019-01-26T02:46:26.924Z,3.01
2019-01-26T02:49:03.668Z,2.85
2019-01-26T02:51:56.457Z,3.07
2019-01-26T02:57:39.761Z,3.20
2019-01-26T03:03:56.259Z,3.09
2019-01-26T03:06:32.011Z,3.29
2019-01-26T03:09:24.969Z,3.41
2019-01-26T03:12:18.611Z,3.41
2019-01-26T03:14:53.563Z,3.34
2019-01-26T03:17:48.306Z,3.11
2019-01-26T03:20:23.162Z,3.13
2019-01-26T03:22:58.853Z,3.10
2019-01-26T03:25:52.550Z,3.11
2019-01-26T03:28:46.849Z,3.09
2019-01-26T03:31:49.877Z,3.06
2019-01-26T03:34:43.867Z,3.10
2019-01-26T03:41:22.845Z,3.17
2019-01-26T03:43:58.559Z,3.22
2019-01-26T03:46:34.283Z,3.30
2019-01-26T03:49:09.971Z,3.26
2019-01-26T03:52:04.084Z,3.16
2019-01-26T03:54:57.660Z,3.20
2019-01-26T03:57:52.174Z,3.24
2019-01-26T04:00:45.234Z,3.17
2019-01-26T04:03:39.204Z,3.19
2019-01-26T04:06:14.870Z,3.21
2019-01-26T04:08:50.586Z,3.28
2019-01-26T04:11:44.339Z,3.42
2019-01-26T04:14:38.961Z,3.34
2019-01-26T04:17:34.195Z,3.34
2019-01-26T04:20:32.172Z,3.41
2019-01-26T04:23:07.873Z,3.51
2019-01-26T04:26:01.544Z,3.49
2019-01-26T04:28:55.210Z,3.38
2019-01-26T04:31:48.866Z,3.44
2019-01-26T04:34:42.563Z,3.37
2019-01-26T04:37:18.224Z,3.42
2019-01-26T04:43:19.402Z,3.45
2019-01-26T04:46:13.130Z,3.46
2019-01-26T04:48:48.875Z,3.42
2019-01-26T04:51:42.602Z,3.40
2019-01-26T04:54:36.462Z,3.37
2019-01-26T04:57:29.035Z,3.28
2019-01-26T05:00:30.812Z,3.28
2019-01-26T05:03:06.515Z,3.30
2019-01-26T05:05:42.414Z,3.29
2019-01-26T05:08:18.135Z,3.26
2019-01-26T05:11:11.929Z,3.28
2019-01-26T05:14:05.928Z,3.43
2019-01-26T05:17:06.668Z,3.44
2019-01-26T05:20:00.347Z,3.37
2019-01-26T05:22:36.099Z,3.47
2019-01-26T05:32:13.186Z,3.58
2019-01-26T05:35:07.214Z,3.55
2019-01-26T05:38:01.162Z,3.59
2019-01-26T05:40:55.032Z,3.67
2019-01-26T05:43:48.639Z,3.70
2019-01-26T05:46:42.461Z,3.59
2019-01-26T05:49:36.209Z,3.64
2019-01-26T05:52:11.867Z,3.69
2019-01-26T05:55:06.121Z,3.76
2019-01-26T05:57:41.812Z,3.81
2019-01-26T06:00:36.538Z,3.67
2019-01-26T06:03:12.235Z,3.85
2019-01-26T06:09:33.816Z,3.88
2019-01-26T06:12:09.513Z,3.87
2019-01-26T06:15:03.451Z,4.07
2019-01-26T06:17:39.140Z,3.92
2019-01-26T06:20:32.942Z,4.14
2019-01-26T06:23:08.652Z,4.19
2019-01-26T06:25:44.370Z,4.23
2019-01-26T06:28:44.022Z,4.15
2019-01-26T06:31:19.780Z,4.21
2019-01-26T06:34:13.474Z,4.51
2019-01-26T06:37:07.127Z,4.64
2019-01-26T06:40:00.786Z,4.74
2019-01-26T06:42:54.269Z,4.88
2019-01-26T06:45:47.929Z,5.01
2019-01-26T06:48:41.680Z,4.81
2019-01-26T06:51:34.989Z,4.84
2019-01-26T06:55:07.979Z,4.62
2019-01-26T06:57:45.892Z,4.75
2019-01-26T07:03:21.959Z,4.68
2019-01-26T07:09:35.795Z,4.98
2019-01-26T07:12:28.192Z,5.08
2019-01-26T07:18:29.430Z,5.03
2019-01-26T07:21:06.670Z,5.12
2019-01-26T07:23:54.158Z,5.16
2019-01-26T07:26:56.954Z,4.87
2019-01-26T07:29:50.585Z,5.10
2019-01-26T07:32:44.463Z,5.25
2019-01-26T07:35:31.785Z,5.23
2019-01-26T07:38:26.525Z,5.27
2019-01-26T07:41:20.695Z,5.38
2019-01-26T07:44:15.093Z,5.45
2019-01-26T07:47:08.935Z,5.46
2019-01-26T07:50:02.984Z,5.49
2019-01-26T07:52:56.730Z,5.39
2019-01-26T07:55:50.405Z,5.65
2019-01-26T07:58:44.011Z,5.60
2019-01-26T08:01:19.749Z,5.68
2019-01-26T08:04:13.591Z,5.60
2019-01-26T08:06:49.339Z,5.81
2019-01-26T08:09:25.151Z,5.70
2019-01-26T08:12:00.906Z,5.83
2019-01-26T08:14:52.581Z,5.87
2019-01-26T08:17:55.936Z,5.92
2019-01-26T08:20:49.689Z,5.86
2019-01-26T08:26:51.319Z,5.92
2019-01-26T08:32:35.041Z,5.82
2019-01-26T08:35:10.779Z,5.84
2019-01-26T08:38:05.611Z,5.82
2019-01-26T08:40:41.397Z,5.93
2019-01-26T08:46:28.515Z,5.89
2019-01-26T08:49:22.273Z,6.02
2019-01-26T08:52:15.865Z,5.99
2019-01-26T08:55:10.009Z,6.08
2019-01-26T08:58:01.350Z,6.10
2019-01-26T09:00:56.923Z,6.25
2019-01-26T09:10:40.903Z,6.33
2019-01-26T09:13:35.695Z,6.45
2019-01-26T09:16:29.418Z,6.48
2019-01-26T09:19:17.770Z,6.40
2019-01-26T09:26:57.742Z,6.47
2019-01-26T09:37:09.481Z,6.53
2019-01-26T09:39:57.042Z,6.56
2019-01-26T09:42:51.658Z,6.39
2019-01-26T09:49:07.527Z,6.55
2019-01-26T09:51:51.281Z,6.68
2019-01-26T09:55:51.847Z,6.56
2019-01-26T10:02:27.429Z,6.60
2019-01-26T10:05:02.515Z,6.66
2019-01-26T10:07:55.259Z,6.58
2019-01-26T10:10:52.750Z,6.57
2019-01-26T10:13:46.484Z,6.42
2019-01-26T10:16:40.495Z,6.64
2019-01-26T10:19:16.265Z,6.70
2019-01-26T10:25:55.687Z,6.71
2019-01-26T10:28:57.377Z,6.53
2019-01-26T10:31:51.303Z,6.62
2019-01-26T10:34:49.323Z,6.62
2019-01-26T10:37:31.922Z,6.67
2019-01-26T10:44:33.780Z,6.68
2019-01-26T10:47:59.904Z,6.55
2019-01-26T10:51:46.154Z,6.63
2019-01-26T10:55:00.199Z,6.41
2019-01-26T11:00:40.615Z,6.61
2019-01-26T11:06:16.236Z,6.28
2019-01-26T11:08:51.094Z,6.46
2019-01-26T11:22:02.441Z,6.62
2019-01-26T11:36:17.162Z,6.61
2019-01-26T11:43:05.970Z,6.59
2019-01-26T11:52:19.744Z,6.30
2019-01-26T11:58:21.859Z,6.49
2019-01-26T12:04:59.648Z,6.59
2019-01-26T12:08:11.707Z,6.39
2019-01-26T12:10:47.538Z,6.47
2019-01-26T12:13:43.903Z,6.60
2019-01-26T12:17:27.315Z,6.49
2019-01-26T12:20:46.135Z,6.78
2019-01-26T12:23:21.853Z,6.55
2019-01-26T12:38:38.854Z,6.67
2019-01-26T12:44:22.587Z,6.62
2019-01-26T12:47:17.302Z,6.78
2019-01-26T12:56:33.778Z,6.52
2019-01-26T12:59:28.219Z,6.20
2019-01-26T13:02:40.698Z,6.73
2019-01-26T13:05:16.582Z,6.78
2019-01-26T13:07:53.029Z,6.78
2019-01-26T13:10:50.149Z,6.67
2019-01-26T13:14:05.055Z,6.58
2019-01-26T13:16:41.053Z,6.65
2019-01-26T13:22:41.704Z,6.66
2019-01-26T13:25:34.781Z,6.66
2019-01-26T13:32:18.481Z,6.49
2019-01-26T13:35:16.252Z,6.64
2019-01-26T13:37:51.990Z,6.42
2019-01-26T13:40:27.941Z,6.42
2019-01-26T13:43:22.632Z,6.51
2019-01-26T13:45:58.434Z,6.59
2019-01-26T13:48:47.129Z,6.61
2019-01-26T13:51:39.681Z,6.43
2019-01-26T13:54:15.478Z,6.46
2019-01-26T14:00:22.094Z,6.62
2019-01-26T14:02:58.204Z,6.30
2019-01-26T14:05:34.038Z,6.40
2019-01-26T14:08:27.405Z,6.61
2019-01-26T14:11:03.381Z,6.41
2019-01-26T14:14:23.991Z,6.38
2019-01-26T14:17:17.608Z,6.37
2019-01-26T14:19:53.458Z,6.53
2019-01-26T14:22:29.277Z,6.40
2019-01-26T14:25:04.762Z,6.49
2019-01-26T14:27:59.657Z,6.52
2019-01-26T14:31:14.199Z,6.40
2019-01-26T14:34:08.045Z,6.47
2019-01-26T14:36:43.905Z,6.36
2019-01-26T14:39:37.252Z,6.34
2019-01-26T14:42:25.513Z,6.31
2019-01-26T14:45:18.522Z,6.48
2019-01-26T14:54:08.192Z,6.33
2019-01-26T14:57:19.904Z,6.38
2019-01-26T15:00:21.284Z,6.58
2019-01-26T15:03:10.455Z,6.42
2019-01-26T15:12:54.126Z,6.28
2019-01-26T15:15:47.517Z,6.37
2019-01-26T15:18:41.021Z,6.31
2019-01-26T15:21:41.470Z,6.38
2019-01-26T15:24:35.178Z,6.27
2019-01-26T15:27:10.971Z,6.29
2019-01-26T15:30:29.664Z,6.26
2019-01-26T15:36:50.815Z,6.49
2019-01-26T15:48:42.046Z,6.25
2019-01-26T15:51:34.584Z,6.07
2019-01-26T15:58:37.457Z,6.18
2019-01-26T16:01:37.472Z,6.20
2019-01-26T16:04:55.304Z,6.17
2019-01-26T16:07:48.914Z,6.05
2019-01-26T16:10:44.680Z,6.08
2019-01-26T16:13:58.278Z,6.09
2019-01-26T16:16:53.666Z,6.15
2019-01-26T16:19:47.493Z,6.11
2019-01-26T16:22:48.850Z,6.07
2019-01-26T16:29:31.642Z,6.08
2019-01-26T16:32:25.354Z,6.10
2019-01-26T16:35:18.946Z,6.07
2019-01-26T16:38:23.146Z,5.98
2019-01-26T16:40:59.272Z,5.93
2019-01-26T16:43:52.942Z,6.01
2019-01-26T16:46:46.436Z,6.06
2019-01-26T16:49:22.204Z,6.19
2019-01-26T16:52:15.651Z,5.99
2019-01-26T16:55:09.846Z,6.01
2019-01-26T16:58:03.510Z,6.05
2019-01-26T17:00:58.316Z,5.98
2019-01-26T17:03:51.565Z,5.96
2019-01-26T17:06:26.546Z,6.08
2019-01-26T17:09:02.483Z,5.95
2019-01-26T17:12:34.502Z,5.97
2019-01-26T17:15:12.544Z,5.96
2019-01-26T17:17:47.629Z,5.86
2019-01-26T17:20:41.672Z,5.90
2019-01-26T17:23:35.315Z,6.03
2019-01-26T17:26:28.780Z,5.98
2019-01-26T17:29:04.623Z,5.98
2019-01-26T17:31:40.399Z,5.96
2019-01-26T17:34:54.831Z,5.99
2019-01-26T17:37:30.643Z,5.96
2019-01-26T17:40:09.941Z,5.94
2019-01-26T17:42:45.134Z,5.93
2019-01-26T17:46:01.581Z,5.89
2019-01-26T17:48:57.507Z,5.87
2019-01-26T17:51:51.211Z,5.90
2019-01-26T17:54:45.116Z,5.89
2019-01-26T17:57:37.944Z,5.97
2019-01-26T18:03:22.534Z,5.87
2019-01-26T18:05:57.828Z,5.87
2019-01-26T18:08:51.755Z,5.87
2019-01-26T18:11:45.409Z,5.87
2019-01-26T18:14:39.376Z,5.81
2019-01-26T18:20:33.967Z,5.83
2019-01-26T18:23:47.433Z,5.84
2019-01-26T18:26:40.498Z,5.77
2019-01-26T18:29:41.110Z,5.69
2019-01-26T18:32:34.968Z,5.73
2019-01-26T18:35:12.522Z,5.69
2019-01-26T18:41:12.141Z,5.74
2019-01-26T18:44:06.076Z,5.72
2019-01-26T18:46:59.756Z,5.71
2019-01-26T18:49:53.630Z,5.63
2019-01-26T18:52:29.358Z,5.67
2019-01-26T18:55:23.397Z,5.73
2019-01-26T18:58:37.397Z,5.76
2019-01-26T19:01:31.089Z,5.61
2019-01-26T19:07:25.654Z,5.63
2019-01-26T19:10:19.947Z,5.63
2019-01-26T19:16:05.547Z,5.61
2019-01-26T19:19:19.681Z,5.61
2019-01-26T19:21:55.566Z,5.69
2019-01-26T19:24:48.461Z,5.65
2019-01-26T19:27:42.299Z,5.63
2019-01-26T19:30:42.128Z,5.60
2019-01-26T19:33:18.488Z,5.55
2019-01-26T19:36:12.569Z,5.57
2019-01-26T19:38:48.346Z,5.61
2019-01-26T19:41:48.890Z,5.47
2019-01-26T19:44:42.609Z,5.59
2019-01-26T19:50:45.455Z,5.65
2019-01-26T19:53:21.189Z,5.69
2019-01-26T19:55:56.989Z,5.66
2019-01-26T19:59:09.533Z,5.57
2019-01-26T20:01:45.260Z,5.53
2019-01-26T20:04:39.410Z,5.58
2019-01-26T20:07:33.435Z,5.65
2019-01-26T20:10:24.896Z,5.59
2019-01-26T20:13:18.664Z,5.58
2019-01-26T20:16:12.665Z,5.65
2019-01-26T20:22:13.605Z,5.63
2019-01-26T20:24:49.610Z,5.59
2019-01-26T20:27:42.603Z,5.66
2019-01-26T20:30:23.356Z,5.54
2019-01-26T20:33:55.535Z,5.59
2019-01-26T20:36:57.657Z,5.62
2019-01-26T20:39:33.455Z,5.51
2019-01-26T20:42:46.142Z,5.61
2019-01-26T20:45:42.437Z,5.59
2019-01-26T20:48:36.314Z,5.68
2019-01-26T20:51:29.927Z,5.67
2019-01-26T20:54:23.609Z,5.61
2019-01-26T20:57:17.491Z,5.62
2019-01-26T21:04:04.792Z,5.73
2019-01-26T21:06:58.048Z,5.65
2019-01-26T21:12:51.385Z,5.73
2019-01-26T21:18:48.144Z,5.58
2019-01-26T21:25:00.198Z,5.77
2019-01-26T21:27:36.190Z,5.68
2019-01-26T21:30:29.975Z,5.67
2019-01-26T21:36:06.591Z,5.68
2019-01-26T21:38:42.432Z,5.74
2019-01-26T21:41:37.459Z,5.81
2019-01-26T21:44:31.170Z,5.85
2019-01-26T21:47:25.139Z,5.80
2019-01-26T21:50:18.432Z,5.86
2019-01-26T21:53:54.545Z,5.81
2019-01-26T22:00:03.363Z,5.84
2019-01-26T22:02:39.107Z,5.90
2019-01-26T22:05:33.031Z,5.83
2019-01-26T22:08:26.734Z,5.85
2019-01-26T22:11:22.175Z,5.86
2019-01-26T22:14:15.908Z,5.83
2019-01-26T22:20:11.407Z,5.92
2019-01-26T22:23:05.087Z,5.92
2019-01-26T22:25:58.589Z,5.98
2019-01-26T22:28:51.963Z,5.96
2019-01-26T22:32:06.331Z,5.97
2019-01-26T22:35:42.626Z,5.93
2019-01-26T22:38:18.369Z,5.96
2019-01-26T22:41:12.409Z,5.97
2019-01-26T22:44:06.338Z,6.03
2019-01-26T22:47:11.695Z,6.03
2019-01-26T22:50:47.799Z,6.07
2019-01-26T22:53:41.578Z,6.00
2019-01-26T22:56:35.375Z,6.01
2019-01-26T22:59:11.143Z,6.07
2019-01-26T23:01:46.898Z,6.04
2019-01-26T23:05:00.371Z,6.06
2019-01-26T23:08:14.651Z,6.06
2019-01-26T23:11:53.167Z,6.18
2019-01-26T23:22:32.493Z,6.23
2019-01-26T23:30:09.240Z,6.22
2019-01-26T23:32:44.155Z,6.16
2019-01-26T23:38:49.771Z,6.27
2019-01-26T23:41:41.640Z,6.25
2019-01-26T23:44:35.409Z,6.31
2019-01-26T23:47:11.111Z,6.29
2019-01-26T23:49:46.833Z,6.25
2019-01-26T23:52:22.521Z,6.32
2019-01-26T23:58:00.570Z,6.38
